Time;durP1;ratioP1;P1;durP2;ratioP2;P2;SDS_P1;SDS_P2;PMS_P1;PMS_P2;Temp;Humidity;BMP_temperature;BMP_pressure;BME280_temperature;BME280_humidity;BME280_pressure;Samples;Min_cycle;Max_cycle;Signal;HPM_P1;HPM_P2
2022/09/12 00:01:46;;;;;;;2.28;2.08;;;;;;;15.32;84.04;95817.25;4935975;29;20217;-81
2022/09/12 00:04:12;;;;;;;2.30;2.10;;;;;;;15.37;83.59;95821.88;4936483;29;20257;-80
2022/09/12 00:06:38;;;;;;;2.08;1.90;;;;;;;15.34;83.36;95814.47;4936653;28;20229;-82
2022/09/12 00:09:07;;;;;;;2.10;1.90;;;;;;;15.32;83.17;95812.06;4936010;29;20197;-81
2022/09/12 00:11:36;;;;;;;2.30;2.10;;;;;;;15.34;83.63;95817.88;4936505;29;20221;-79
2022/09/12 00:14:03;;;;;;;3.00;2.10;;;;;;;15.31;83.42;95810.47;4936802;29;20198;-83
2022/09/12 00:16:33;;;;;;;2.25;2.05;;;;;;;15.35;82.93;95816.06;4935470;28;20225;-80
2022/09/12 00:19:00;;;;;;;4.00;1.88;;;;;;;15.40;82.71;95809.25;4936589;29;20590;-81
2022/09/12 00:21:27;;;;;;;2.15;2.00;;;;;;;15.42;82.29;95812.47;4935147;29;20273;-80
2022/09/12 00:23:54;;;;;;;3.60;2.10;;;;;;;15.38;81.82;95803.50;4936875;29;20260;-81
2022/09/12 00:26:21;;;;;;;3.05;2.30;;;;;;;15.35;82.31;95800.50;4936454;28;20233;-80
2022/09/12 00:28:48;;;;;;;3.42;2.15;;;;;;;15.40;81.97;95800.69;4936701;29;20260;-81
2022/09/12 00:31:17;;;;;;;2.30;2.08;;;;;;;15.35;82.23;95796.13;4936330;29;20257;-82
2022/09/12 00:33:45;;;;;;;5.28;2.55;;;;;;;15.37;81.90;95795.91;4936683;29;20252;-80
2022/09/12 00:36:15;;;;;;;3.42;2.10;;;;;;;15.41;81.54;95797.88;4935980;28;20728;-80
2022/09/12 00:38:42;;;;;;;2.70;2.00;;;;;;;15.36;81.51;95795.13;4936987;29;20275;-81
2022/09/12 00:41:14;;;;;;;3.17;1.90;;;;;;;15.33;82.07;95789.53;4934478;29;20205;-83
2022/09/12 00:43:43;;;;;;;2.83;2.13;;;;;;;15.30;82.14;95795.91;4930418;29;20205;-82
2022/09/12 00:46:30;;;;;;;2.72;2.05;;;;;;;15.30;81.82;95782.13;4935240;28;20281;-82
2022/09/12 00:49:01;;;;;;;2.30;2.10;;;;;;;15.26;82.06;95786.94;4930057;29;20197;-82
2022/09/12 00:51:30;;;;;;;4.38;2.33;;;;;;;15.23;81.78;95786.53;4935091;29;20225;-81
2022/09/12 00:53:58;;;;;;;2.60;1.92;;;;;;;15.19;81.97;95786.16;4936018;29;20288;-80
2022/09/12 00:56:25;;;;;;;2.63;2.08;;;;;;;15.15;82.72;95777.97;4934885;28;20233;-80
2022/09/12 00:58:57;;;;;;;2.95;2.22;;;;;;;15.17;82.74;95777.75;4935196;29;20265;-82
2022/09/12 01:01:24;;;;;;;2.67;1.98;;;;;;;15.15;82.67;95782.34;4934772;29;20216;-82
2022/09/12 01:03:51;;;;;;;2.15;1.90;;;;;;;15.11;82.73;95771.56;4935497;29;20245;-82
2022/09/12 01:06:24;;;;;;;4.05;2.22;;;;;;;15.05;82.96;95768.97;4935072;28;20229;-82
2022/09/12 01:08:52;;;;;;;2.70;2.40;;;;;;;14.94;83.46;95772.16;4935527;29;20193;-82
2022/09/12 01:11:20;;;;;;;4.40;2.22;;;;;;;14.92;83.48;95768.97;4934767;29;20273;-82
2022/09/12 01:13:48;;;;;;;2.95;2.40;;;;;;;15.00;83.05;95769.59;4935292;29;20892;-83
2022/09/12 01:16:14;;;;;;;4.05;2.40;;;;;;;15.03;82.58;95766.56;4934588;28;20221;-81
2022/09/12 01:18:54;;;;;;;4.80;2.08;;;;;;;15.08;82.06;95764.19;4934923;29;20224;-81
2022/09/12 01:21:33;;;;;;;2.42;1.90;;;;;;;15.05;82.17;95769.78;4933999;29;20733;-81
2022/09/12 01:24:35;;;;;;;2.67;1.95;;;;;;;15.04;82.41;95757.78;4934847;29;20205;-80
2022/09/12 01:27:20;;;;;;;2.55;2.00;;;;;;;14.97;82.60;95753.63;4932073;29;20239;-79
2022/09/12 01:30:15;;;;;;;2.08;1.88;;;;;;;14.95;81.98;95751.22;4933052;29;20609;-81
2022/09/12 01:32:55;;;;;;;2.63;1.92;;;;;;;14.93;81.83;95753.22;4932993;29;20725;-82
2022/09/12 01:35:26;;;;;;;2.53;2.10;;;;;;;14.96;81.75;95752.03;4934783;28;21106;-80
2022/09/12 01:38:05;;;;;;;2.30;2.05;;;;;;;14.97;81.66;95748.44;4935410;29;20245;-80
2022/09/12 01:40:39;;;;;;;2.30;1.88;;;;;;;14.93;82.07;95748.03;4933747;29;20194;-80
2022/09/12 01:43:18;;;;;;;2.33;1.80;;;;;;;14.90;81.98;95743.25;4935339;29;20221;-81
2022/09/12 01:45:53;;;;;;;3.15;2.05;;;;;;;14.83;82.65;95743.22;4929733;28;20272;-81
2022/09/12 01:48:26;;;;;;;2.13;1.92;;;;;;;14.83;82.12;95751.00;4935277;29;20197;-80
2022/09/12 01:50:59;;;;;;;5.45;1.98;;;;;;;14.77;82.10;95745.84;4936234;29;20193;-83
2022/09/12 01:53:29;;;;;;;2.33;1.80;;;;;;;14.73;82.63;95736.84;4940406;29;20245;-83
2022/09/12 01:56:03;;;;;;;2.15;2.00;;;;;;;14.73;82.57;95736.84;4939921;28;20253;-83
2022/09/12 01:58:36;;;;;;;2.20;2.00;;;;;;;14.67;82.79;95727.28;4940125;29;20331;-83
2022/09/12 02:01:06;;;;;;;2.03;1.80;;;;;;;14.66;82.82;95729.06;4939650;29;20205;-80
2022/09/12 02:03:39;;;;;;;2.25;1.73;;;;;;;14.66;83.07;95733.44;4941028;29;20265;-83
2022/09/12 02:06:10;;;;;;;2.10;1.88;;;;;;;14.68;82.69;95726.28;4940230;28;20248;-84
2022/09/12 02:08:43;;;;;;;3.45;2.05;;;;;;;14.73;82.29;95723.91;4939020;29;20197;-85
2022/09/12 02:11:11;;;;;;;4.28;1.90;;;;;;;14.69;81.76;95723.50;4939432;29;20212;-84
2022/09/12 02:13:42;;;;;;;2.45;1.88;;;;;;;14.63;81.81;95718.28;4939326;29;20264;-85
2022/09/12 02:16:13;;;;;;;1.80;1.70;;;;;;;14.62;81.44;95714.13;4938785;28;20229;-81
2022/09/12 02:18:45;;;;;;;1.90;1.77;;;;;;;14.58;81.51;95710.34;4939395;29;20272;-85
2022/09/12 02:21:12;;;;;;;2.20;1.80;;;;;;;14.53;81.85;95710.91;4938794;29;20217;-85
2022/09/12 02:23:44;;;;;;;1.90;1.80;;;;;;;14.48;82.07;95708.91;4938896;29;20581;-85
2022/09/12 02:26:18;;;;;;;2.28;1.65;;;;;;;14.56;81.93;95707.94;4939165;28;20279;-85
2022/09/12 02:28:45;;;;;;;1.73;1.63;;;;;;;14.56;81.43;95700.16;4933124;29;20201;-85
2022/09/12 02:31:19;;;;;;;1.95;1.85;;;;;;;14.51;81.52;95712.91;4938580;29;20268;-85
2022/09/12 02:33:56;;;;;;;5.13;1.85;;;;;;;14.43;82.02;95710.53;4933746;29;20198;-83
2022/09/12 02:36:33;;;;;;;1.92;1.77;;;;;;;14.51;81.95;95705.13;4937956;28;20653;-85
2022/09/12 02:39:00;;;;;;;2.17;1.70;;;;;;;14.54;81.19;95706.53;4938736;29;20221;-83
2022/09/12 02:41:26;;;;;;;1.95;1.83;;;;;;;14.57;80.77;95706.16;4937985;29;20202;-85
2022/09/12 02:43:57;;;;;;;3.88;1.83;;;;;;;14.49;80.68;95702.75;4938654;29;20705;-83
2022/09/12 02:46:28;;;;;;;1.95;1.75;;;;;;;14.42;81.31;95695.97;4937530;28;20252;-84
2022/09/12 02:48:57;;;;;;;2.17;1.30;;;;;;;14.38;81.02;95692.94;4938705;29;20190;-83
2022/09/12 02:51:25;;;;;;;1.70;1.60;;;;;;;14.31;81.43;95707.66;4937473;29;20205;-85
2022/09/12 02:53:53;;;;;;;1.70;1.60;;;;;;;14.31;81.71;95701.69;4938547;29;20253;-83
2022/09/12 02:56:25;;;;;;;2.08;1.88;;;;;;;14.30;81.55;95700.09;4937725;28;20225;-83
2022/09/12 02:58:53;;;;;;;2.70;1.60;;;;;;;14.32;81.42;95700.69;4937982;29;20241;-82
2022/09/12 03:01:31;;;;;;;3.63;1.70;;;;;;;14.33;81.72;95702.28;4937144;29;20264;-84
2022/09/12 03:04:20;;;;;;;2.58;1.88;;;;;;;14.38;81.21;95697.31;4936486;29;20517;-85
2022/09/12 03:06:54;;;;;;;2.58;1.60;;;;;;;14.44;80.84;95697.34;4937302;28;20253;-84
2022/09/12 03:09:29;;;;;;;3.63;1.63;;;;;;;14.39;80.92;95704.91;4937425;29;20729;-86
2022/09/12 03:12:10;;;;;;;2.05;1.40;;;;;;;14.43;80.31;95692.38;4932767;29;20217;-83
2022/09/12 03:15:00;;;;;;;3.20;1.60;;;;;;;14.37;80.56;95688.75;4937358;28;20197;-85
2022/09/12 03:17:35;;;;;;;1.88;1.77;;;;;;;14.36;80.89;95696.72;4936826;29;20205;-83
2022/09/12 03:20:10;;;;;;;3.53;1.77;;;;;;;14.40;80.47;95688.41;4937429;29;20228;-84
2022/09/12 03:22:46;;;;;;;1.80;1.70;;;;;;;14.35;80.77;95685.56;4937238;29;20220;-83
2022/09/12 03:25:18;;;;;;;3.65;2.05;;;;;;;14.29;81.02;95691.53;4937229;28;20296;-84
2022/09/12 03:27:51;;;;;;;1.88;1.77;;;;;;;14.26;81.02;95689.31;4937893;29;20198;-82
2022/09/12 03:30:18;;;;;;;1.77;1.67;;;;;;;14.17;81.48;95693.09;4936560;29;20209;-83
2022/09/12 03:32:47;;;;;;;4.28;2.00;;;;;;;14.16;81.66;95689.72;4937683;29;20308;-82
2022/09/12 03:35:17;;;;;;;1.93;1.70;;;;;;;14.16;81.70;95691.50;4937195;28;20237;-82
2022/09/12 03:37:43;;;;;;;1.80;1.70;;;;;;;14.10;81.34;95692.28;4937840;29;20249;-83
2022/09/12 03:40:11;;;;;;;2.17;1.60;;;;;;;14.12;81.71;95693.69;4936957;29;20698;-83
2022/09/12 03:42:38;;;;;;;1.85;1.50;;;;;;;14.13;81.65;95692.69;4937809;29;20313;-83
2022/09/12 03:45:05;;;;;;;1.83;1.70;;;;;;;14.15;81.16;95693.28;4936798;28;20233;-83
2022/09/12 03:47:32;;;;;;;1.77;1.60;;;;;;;14.20;80.66;95691.91;4937228;29;20261;-83
2022/09/12 03:49:58;;;;;;;3.40;1.70;;;;;;;14.21;80.61;95689.13;4937424;29;20206;-83
2022/09/12 03:52:26;;;;;;;1.80;1.60;;;;;;;14.21;80.37;95693.50;4935497;29;20218;-82
2022/09/12 03:54:52;;;;;;;1.67;1.58;;;;;;;14.14;80.62;95690.91;4936176;28;20197;-83
2022/09/12 03:57:19;;;;;;;2.35;1.42;;;;;;;14.07;80.76;95693.44;4937110;29;20201;-84
2022/09/12 03:59:45;;;;;;;1.80;1.70;;;;;;;14.07;80.64;95690.88;4936869;29;20253;-83
2022/09/12 04:02:12;;;;;;;1.80;1.70;;;;;;;14.11;80.45;95696.47;4935792;29;20226;-82
2022/09/12 04:04:40;;;;;;;1.80;1.70;;;;;;;13.92;81.55;95687.63;4936557;28;20289;-82
2022/09/12 04:07:07;;;;;;;2.20;1.50;;;;;;;13.62;83.05;95689.72;4936927;29;20372;-83
2022/09/12 04:09:35;;;;;;;1.70;1.60;;;;;;;13.51;83.69;95694.63;4936165;29;20194;-82
2022/09/12 04:12:02;;;;;;;1.97;1.80;;;;;;;13.44;83.33;95699.78;4935623;29;20276;-82
2022/09/12 04:14:28;;;;;;;1.60;1.50;;;;;;;13.45;83.83;95698.81;4935369;29;20201;-82
2022/09/12 04:16:55;;;;;;;2.13;1.70;;;;;;;13.52;83.01;95698.81;4935575;28;20240;-83
2022/09/12 04:19:22;;;;;;;3.30;1.60;;;;;;;13.61;82.78;95700.28;4936808;29;20225;-83
2022/09/12 04:21:48;;;;;;;1.80;1.70;;;;;;;13.58;82.21;95698.84;4930323;29;20222;-82
2022/09/12 04:24:15;;;;;;;3.83;1.70;;;;;;;13.59;82.33;95695.28;4932508;29;20264;-81
2022/09/12 04:26:42;;;;;;;2.00;1.87;;;;;;;13.52;83.04;95696.22;4936194;28;20233;-83
2022/09/12 04:29:11;;;;;;;2.30;1.90;;;;;;;13.53;83.09;95696.03;4936433;29;20694;-82
2022/09/12 04:31:38;;;;;;;2.67;2.30;;;;;;;13.60;82.29;95709.03;4933972;29;20221;-82
2022/09/12 04:34:05;;;;;;;1.87;1.77;;;;;;;13.63;81.95;95701.69;4936086;29;20205;-82
2022/09/12 04:36:33;;;;;;;1.90;1.80;;;;;;;13.63;81.89;95698.28;4935130;28;20258;-82
2022/09/12 04:39:00;;;;;;;1.70;1.60;;;;;;;13.63;81.46;95695.72;4935859;29;20257;-82
2022/09/12 04:41:29;;;;;;;2.07;1.50;;;;;;;13.63;81.34;95690.53;4935770;29;20272;-82
2022/09/12 04:44:00;;;;;;;2.03;1.60;;;;;;;13.63;80.97;95696.50;4936027;29;20233;-82
2022/09/12 04:46:28;;;;;;;3.27;1.80;;;;;;;13.68;80.95;95698.50;4935047;28;20297;-83
2022/09/12 04:48:54;;;;;;;2.70;1.70;;;;;;;13.70;80.87;95693.94;4933876;29;20202;-80
2022/09/12 04:51:24;;;;;;;4.03;1.70;;;;;;;13.67;80.95;95696.91;4934841;29;20205;-83
2022/09/12 04:53:52;;;;;;;1.97;1.70;;;;;;;13.66;80.92;95697.91;4935734;29;20205;-83
2022/09/12 04:56:19;;;;;;;1.70;1.60;;;;;;;13.56;80.93;95700.84;4935199;29;20613;-83
2022/09/12 04:58:46;;;;;;;1.63;1.53;;;;;;;13.59;81.14;95697.06;4952350;29;20212;-83
2022/09/12 05:01:16;;;;;;;1.80;1.70;;;;;;;13.59;80.91;95697.88;4935153;29;20670;-86
2022/09/12 05:03:43;;;;;;;4.43;1.87;;;;;;;13.63;81.07;95693.13;4935724;29;20253;-84
2022/09/12 05:06:13;;;;;;;3.10;1.50;;;;;;;13.64;80.75;95703.28;4951240;28;20232;-85
2022/09/12 05:08:39;;;;;;;1.70;1.60;;;;;;;13.59;81.13;95697.06;4940475;28;20633;-85
2022/09/12 05:11:08;;;;;;;3.20;1.70;;;;;;;13.52;81.54;95696.22;4934623;29;20211;-85
2022/09/12 05:13:35;;;;;;;2.00;1.80;;;;;;;13.52;81.58;95704.00;4936328;29;20230;-85
2022/09/12 05:16:04;;;;;;;2.80;1.70;;;;;;;13.53;82.23;95703.81;4935470;28;20229;-85
2022/09/12 05:18:36;;;;;;;1.70;1.53;;;;;;;13.52;82.59;95702.22;4935587;29;20264;-86
2022/09/12 05:21:05;;;;;;;3.00;2.10;;;;;;;13.66;82.23;95713.44;4935074;29;20664;-83
2022/09/12 05:23:32;;;;;;;3.73;1.77;;;;;;;13.60;81.81;95712.41;4935397;28;20236;-81
2022/09/12 05:26:00;;;;;;;3.13;1.90;;;;;;;13.52;82.23;95712.56;4935431;28;20229;-81
2022/09/12 05:28:30;;;;;;;2.70;1.80;;;;;;;13.47;82.95;95709.72;4936111;29;20276;-82
2022/09/12 05:31:03;;;;;;;2.30;1.60;;;;;;;13.61;82.46;95718.38;4935193;29;20201;-81
2022/09/12 05:33:32;;;;;;;3.60;1.80;;;;;;;13.67;82.51;95710.63;4935647;29;20229;-83
2022/09/12 05:35:58;;;;;;;2.67;1.70;;;;;;;13.65;82.66;95725.56;4935449;28;20677;-82
2022/09/12 05:38:27;;;;;;;2.37;1.80;;;;;;;13.77;82.72;95724.03;4935618;29;20205;-83
2022/09/12 05:40:54;;;;;;;2.70;1.90;;;;;;;13.94;82.21;95724.50;4934738;29;20225;-85
2022/09/12 05:43:20;;;;;;;1.70;1.60;;;;;;;14.04;81.10;95727.53;4935163;29;20273;-83
2022/09/12 05:45:47;;;;;;;2.40;1.90;;;;;;;14.14;80.48;95720.19;4934102;28;20233;-85
2022/09/12 05:48:13;;;;;;;1.80;1.70;;;;;;;14.18;80.10;95720.59;4935299;29;20600;-84
2022/09/12 05:50:41;;;;;;;2.27;2.07;;;;;;;14.20;80.99;95722.97;4934149;29;20201;-84
2022/09/12 05:53:07;;;;;;;4.50;2.00;;;;;;;14.30;81.13;95723.41;4934873;29;20324;-84
2022/09/12 05:55:34;;;;;;;4.15;2.00;;;;;;;14.31;81.63;95718.03;4934484;28;20241;-85
2022/09/12 05:58:00;;;;;;;2.17;1.98;;;;;;;14.43;81.34;95724.25;4935157;29;20205;-85
2022/09/12 06:00:27;;;;;;;5.30;2.10;;;;;;;14.43;81.42;95726.06;4933967;29;20236;-84
2022/09/12 06:02:53;;;;;;;2.13;1.92;;;;;;;14.51;81.36;95728.44;4934347;29;20225;-84
2022/09/12 06:05:19;;;;;;;2.50;1.73;;;;;;;14.59;81.09;95719.72;4934291;28;20295;-82
2022/09/12 06:07:48;;;;;;;2.30;2.05;;;;;;;14.59;80.49;95723.09;4935069;29;20209;-82
2022/09/12 06:10:15;;;;;;;3.00;2.10;;;;;;;14.67;80.21;95720.28;4934537;29;20276;-85
2022/09/12 06:12:42;;;;;;;1.92;1.80;;;;;;;14.73;79.60;95718.72;4934067;29;20257;-85
2022/09/12 06:15:09;;;;;;;2.20;1.95;;;;;;;14.86;79.29;95716.91;4934440;28;20233;-86
2022/09/12 06:17:36;;;;;;;5.85;2.08;;;;;;;14.94;78.81;95720.31;4934681;29;20205;-85
2022/09/12 06:20:03;;;;;;;2.42;2.22;;;;;;;15.00;78.60;95722.91;4934072;29;20650;-84
2022/09/12 06:22:30;;;;;;;2.15;1.95;;;;;;;15.12;77.71;95721.31;4935073;29;20229;-85
2022/09/12 06:24:58;;;;;;;3.40;2.13;;;;;;;15.26;77.27;95719.47;4939620;29;20257;-85
2022/09/12 06:27:24;;;;;;;4.25;2.13;;;;;;;15.43;76.63;95728.44;4934489;29;20205;-84
2022/09/12 06:29:51;;;;;;;2.63;2.15;;;;;;;15.57;75.15;95721.47;4934162;29;20213;-82
2022/09/12 06:32:17;;;;;;;2.67;2.00;;;;;;;15.60;74.14;95723.63;4933743;29;20699;-83
2022/09/12 06:34:47;;;;;;;3.42;2.38;;;;;;;15.61;74.44;95722.63;4933368;29;20205;-81
2022/09/12 06:37:13;;;;;;;2.50;2.30;;;;;;;15.73;74.42;95723.59;4934262;29;20201;-82
2022/09/12 06:39:40;;;;;;;2.30;2.00;;;;;;;15.82;73.96;95724.94;4937063;29;20693;-86
2022/09/12 06:42:08;;;;;;;6.20;4.50;;;;;;;15.93;74.05;95728.72;4929817;29;20237;-81
2022/09/12 06:44:35;;;;;;;58.03;51.90;;;;;;;16.06;73.78;95720.06;4943462;28;20232;-84
2022/09/12 06:47:01;;;;;;;23.33;20.92;;;;;;;16.21;73.77;95718.78;4956828;29;20397;-83
2022/09/12 06:49:28;;;;;;;5.63;5.07;;;;;;;16.36;72.88;95710.72;4957349;29;20208;-81
2022/09/12 06:51:54;;;;;;;2.30;2.10;;;;;;;16.52;72.65;95718.03;4956935;28;20780;-83
2022/09/12 06:54:22;;;;;;;3.58;2.97;;;;;;;16.52;72.07;95715.44;4957242;28;20209;-83
2022/09/12 06:56:48;;;;;;;6.03;2.63;;;;;;;16.78;70.78;95717.06;4956453;28;20252;-82
2022/09/12 06:59:19;;;;;;;2.95;2.00;;;;;;;16.85;70.38;95717.81;4957503;29;20207;-83
2022/09/12 07:01:45;;;;;;;4.40;2.08;;;;;;;16.92;70.26;95720.38;4956918;28;20225;-83
2022/09/12 07:04:11;;;;;;;3.42;2.17;;;;;;;17.01;69.76;95716.47;4945558;29;20237;-86
2022/09/12 07:06:40;;;;;;;34.90;31.15;;;;;;;17.15;69.84;95719.75;4937380;28;20659;-84
2022/09/12 07:09:09;;;;;;;8.85;8.00;;;;;;;17.41;69.20;95724.72;4938002;29;20288;-81
2022/09/12 07:11:37;;;;;;;3.78;3.10;;;;;;;17.51;67.61;95717.19;4937345;29;20225;-83
2022/09/12 07:14:05;;;;;;;3.95;2.40;;;;;;;17.66;65.96;95719.50;4937306;29;20281;-83
2022/09/12 07:16:36;;;;;;;2.17;1.98;;;;;;;17.87;65.73;95720.88;4936056;28;20729;-82
2022/09/12 07:19:05;;;;;;;4.43;3.83;;;;;;;17.99;65.86;95713.91;4936518;29;20217;-85
2022/09/12 07:21:31;;;;;;;4.15;3.13;;;;;;;18.04;64.67;95714.03;4937587;29;20367;-85
2022/09/12 07:23:58;;;;;;;2.30;2.20;;;;;;;18.19;65.51;95718.88;4939285;29;20209;-84
2022/09/12 07:26:26;;;;;;;2.70;2.50;;;;;;;18.34;65.99;95714.03;4937429;28;20300;-83
2022/09/12 07:28:54;;;;;;;3.92;2.35;;;;;;;18.44;65.50;95724.75;4938305;29;20206;-85
2022/09/12 07:31:25;;;;;;;2.58;2.38;;;;;;;18.67;65.56;95718.81;4938365;29;20212;-83
2022/09/12 07:33:53;;;;;;;8.45;2.72;;;;;;;18.89;63.46;95719.09;4938457;29;20261;-80
2022/09/12 07:36:22;;;;;;;3.70;2.50;;;;;;;19.10;61.73;95717.75;4937785;28;20237;-80
2022/09/12 07:38:54;;;;;;;5.78;3.00;;;;;;;19.27;61.85;95722.06;4938024;29;20207;-80
2022/09/12 07:41:22;;;;;;;3.63;3.05;;;;;;;19.39;60.60;95724.69;4937265;29;20335;-80
2022/09/12 07:43:51;;;;;;;4.90;2.90;;;;;;;19.69;59.67;95721.16;4938308;29;20644;-81
2022/09/12 07:46:18;;;;;;;7.70;2.95;;;;;;;19.91;58.70;95728.16;4937659;28;20320;-80
2022/09/12 07:48:45;;;;;;;5.22;3.08;;;;;;;19.99;58.28;95730.44;4937630;29;20269;-81
2022/09/12 07:51:12;;;;;;;4.97;2.97;;;;;;;20.19;57.74;95726.63;4937804;29;20273;-81
2022/09/12 07:53:42;;;;;;;7.20;3.05;;;;;;;20.25;56.76;95726.47;4937868;29;20273;-81
2022/09/12 07:56:10;;;;;;;4.80;3.55;;;;;;;20.29;56.34;95724.97;4937992;28;20676;-81
2022/09/12 07:58:39;;;;;;;7.50;3.55;;;;;;;20.45;57.70;95718.22;4938169;29;20209;-81
2022/09/12 08:01:07;;;;;;;4.82;3.25;;;;;;;20.50;58.07;95723.53;4937222;29;20226;-81
2022/09/12 08:03:34;;;;;;;6.72;2.80;;;;;;;20.62;57.49;95720.84;4937639;29;20269;-82
2022/09/12 08:06:05;;;;;;;3.65;3.00;;;;;;;20.79;57.03;95713.81;4937110;28;20814;-81
2022/09/12 08:08:33;;;;;;;3.30;2.80;;;;;;;20.93;56.17;95722.19;4937367;29;20257;-82
2022/09/12 08:11:00;;;;;;;3.08;2.78;;;;;;;21.03;55.83;95722.31;4937074;29;20206;-81
2022/09/12 08:13:27;;;;;;;3.20;2.90;;;;;;;21.18;53.78;95729.59;4937529;29;20273;-81
2022/09/12 08:15:59;;;;;;;2.70;2.50;;;;;;;21.26;52.66;95724.00;4937952;28;20239;-82
2022/09/12 08:18:26;;;;;;;3.80;2.60;;;;;;;21.36;54.36;95724.94;4936285;29;20206;-81
2022/09/12 08:20:57;;;;;;;2.85;2.65;;;;;;;21.47;51.91;95722.47;4936944;29;20284;-82
2022/09/12 08:23:23;;;;;;;2.63;2.42;;;;;;;21.59;52.09;95725.78;4936949;29;20237;-82
2022/09/12 08:25:51;;;;;;;3.58;2.40;;;;;;;21.63;51.88;95725.06;4936498;28;20767;-81
2022/09/12 08:28:18;;;;;;;2.45;2.25;;;;;;;21.88;51.94;95723.81;4936100;29;20205;-82
2022/09/12 08:30:44;;;;;;;2.17;2.08;;;;;;;21.83;50.51;95727.16;4936150;29;20652;-84
2022/09/12 08:33:10;;;;;;;2.22;2.03;;;;;;;22.00;51.84;95725.28;4937768;29;20269;-84
2022/09/12 08:35:37;;;;;;;2.88;2.25;;;;;;;22.11;50.47;95720.97;4936775;28;20233;-84
2022/09/12 08:38:06;;;;;;;2.83;2.38;;;;;;;22.23;48.90;95724.25;4936214;29;20581;-83
2022/09/12 08:40:42;;;;;;;2.47;2.30;;;;;;;22.23;48.95;95720.81;4936213;29;20608;-85
2022/09/12 08:43:26;;;;;;;3.28;2.03;;;;;;;22.35;49.16;95729.34;4936469;29;20229;-84
2022/09/12 08:46:02;;;;;;;3.50;2.17;;;;;;;22.49;49.28;95725.31;4936413;28;20236;-84
2022/09/12 08:48:29;;;;;;;2.15;1.95;;;;;;;22.65;47.68;95727.03;4935865;29;20692;-84
2022/09/12 08:50:56;;;;;;;2.75;2.55;;;;;;;22.74;47.43;95724.72;4935934;29;20216;-85
2022/09/12 08:53:27;;;;;;;2.30;2.10;;;;;;;22.69;48.17;95722.09;4935972;29;20225;-81
2022/09/12 08:55:59;;;;;;;2.60;1.90;;;;;;;22.57;47.87;95724.84;4935667;28;20233;-82
2022/09/12 08:58:28;;;;;;;2.38;2.17;;;;;;;22.76;46.70;95720.03;4935030;29;20731;-82
2022/09/12 09:01:02;;;;;;;2.03;1.90;;;;;;;22.63;47.20;95720.44;4935082;29;20229;-82
2022/09/12 09:04:02;;;;;;;14.13;12.80;;;;;;;22.95;47.44;95717.84;4935707;29;20809;-84
2022/09/12 09:06:41;;;;;;;3.47;2.33;;;;;;;22.91;46.11;95707.06;4935410;28;20233;-82
2022/09/12 09:09:13;;;;;;;2.10;2.00;;;;;;;22.95;45.39;95707.34;4935055;29;20201;-81
2022/09/12 09:11:54;;;;;;;1.90;1.80;;;;;;;23.12;45.69;95707.19;4935569;29;20232;-81
2022/09/12 09:14:52;;;;;;;2.00;1.80;;;;;;;23.06;45.22;95701.16;4936228;29;20289;-82
2022/09/12 09:17:25;;;;;;;2.85;1.75;;;;;;;23.25;46.08;95698.91;4935076;29;20260;-80
2022/09/12 09:20:02;;;;;;;2.08;1.98;;;;;;;23.45;44.43;95703.50;4935094;29;20220;-81
2022/09/12 09:22:37;;;;;;;2.10;2.00;;;;;;;23.51;43.63;95697.19;4934746;29;20288;-82
2022/09/12 09:25:11;;;;;;;3.35;1.98;;;;;;;23.46;45.35;95707.72;4934896;28;20312;-82
2022/09/12 09:27:43;;;;;;;2.78;2.03;;;;;;;23.60;45.40;95688.63;4935400;29;20261;-81
2022/09/12 09:30:16;;;;;;;3.35;2.10;;;;;;;23.83;44.44;95684.00;4934316;29;20268;-81
2022/09/12 09:32:46;;;;;;;2.22;1.92;;;;;;;23.86;44.67;95686.13;4935937;29;20603;-82
2022/09/12 09:35:17;;;;;;;3.67;2.25;;;;;;;23.94;45.05;95689.03;4935188;28;20292;-81
2022/09/12 09:37:56;;;;;;;5.10;2.65;;;;;;;23.95;45.52;95684.56;4935680;29;20268;-81
2022/09/12 09:40:27;;;;;;;5.13;2.33;;;;;;;24.05;45.47;95695.13;4934738;29;20257;-81
2022/09/12 09:43:00;;;;;;;4.47;2.30;;;;;;;24.09;45.40;95691.69;4935715;29;20276;-82
2022/09/12 09:45:28;;;;;;;3.50;2.35;;;;;;;24.38;45.97;95686.03;4935159;28;20233;-81
2022/09/12 09:48:00;;;;;;;3.45;2.10;;;;;;;24.46;44.95;95685.50;4935977;29;20831;-84
2022/09/12 09:50:28;;;;;;;4.82;4.28;;;;;;;24.43;43.43;95680.78;4934690;29;20213;-81
2022/09/12 09:52:58;;;;;;;2.97;2.78;;;;;;;24.25;43.40;95676.75;4936038;29;20229;-82
2022/09/12 09:55:30;;;;;;;4.00;2.70;;;;;;;24.17;44.08;95679.09;4935335;29;20281;-80
2022/09/12 09:57:56;;;;;;;4.78;4.30;;;;;;;24.16;44.76;95680.16;4935941;29;20206;-82
2022/09/12 10:00:30;;;;;;;2.13;2.03;;;;;;;24.11;44.66;95684.34;4934506;29;20209;-83
2022/09/12 10:03:01;;;;;;;1.95;1.85;;;;;;;24.21;44.50;95685.44;4935750;29;20225;-83
2022/09/12 10:05:28;;;;;;;2.70;2.50;;;;;;;24.00;44.86;95682.75;4934702;28;20717;-83
2022/09/12 10:07:55;;;;;;;3.38;2.10;;;;;;;23.83;43.36;95682.16;4935499;29;20759;-84
2022/09/12 10:10:21;;;;;;;2.40;2.20;;;;;;;23.97;44.40;95678.00;4934248;29;20265;-83
2022/09/12 10:12:48;;;;;;;2.00;1.80;;;;;;;23.95;42.89;95682.72;4937443;29;20229;-83
2022/09/12 10:15:19;;;;;;;1.95;1.52;;;;;;;23.75;42.28;95677.38;4938069;28;20233;-83
2022/09/12 10:17:49;;;;;;;2.90;1.63;;;;;;;23.48;42.73;95680.09;4939149;29;20209;-84
2022/09/12 10:20:30;;;;;;;2.10;2.00;;;;;;;23.40;44.22;95676.13;4936934;29;20220;-84
2022/09/12 10:22:59;;;;;;;1.90;1.80;;;;;;;23.45;44.24;95666.69;4939600;29;20312;-84
2022/09/12 10:25:26;;;;;;;2.00;1.80;;;;;;;23.20;45.60;95662.88;4938957;28;20237;-80
2022/09/12 10:27:56;;;;;;;4.07;3.78;;;;;;;23.26;45.92;95661.88;4939009;29;20221;-82
2022/09/12 10:30:24;;;;;;;9.43;8.48;;;;;;;23.42;46.25;95666.16;4938389;29;20201;-83
2022/09/12 10:32:52;;;;;;;5.75;5.25;;;;;;;23.56;47.09;95669.16;4938343;29;20239;-82
2022/09/12 10:35:22;;;;;;;2.08;1.90;;;;;;;23.30;46.28;95664.75;4938916;28;20256;-81
2022/09/12 10:37:55;;;;;;;2.88;2.65;;;;;;;23.30;47.02;95660.28;4939025;29;20633;-81
2022/09/12 10:40:23;;;;;;;2.10;1.90;;;;;;;23.08;46.37;95659.66;4937435;29;20644;-82
2022/09/12 10:42:51;;;;;;;3.30;2.10;;;;;;;23.19;46.68;95661.28;4937339;29;20717;-81
2022/09/12 10:45:20;;;;;;;1.70;1.60;;;;;;;23.15;47.27;95662.03;4937598;28;20236;-81
2022/09/12 10:47:48;;;;;;;2.35;2.03;;;;;;;23.23;46.53;95656.31;4937312;29;20201;-81
2022/09/12 10:50:31;;;;;;;1.80;1.70;;;;;;;23.33;46.36;95654.53;4936999;29;20201;-81
2022/09/12 10:53:17;;;;;;;2.60;2.10;;;;;;;23.45;45.95;95664.06;4937513;29;20316;-81
2022/09/12 10:56:01;;;;;;;4.25;2.70;;;;;;;23.35;45.89;95660.34;4937754;28;20611;-81
2022/09/12 10:58:53;;;;;;;3.35;3.08;;;;;;;23.40;46.75;95652.47;4935455;29;20206;-82
2022/09/12 11:01:34;;;;;;;2.20;2.00;;;;;;;23.34;46.26;95652.69;4936967;29;20319;-81
2022/09/12 11:04:18;;;;;;;2.35;2.15;;;;;;;23.07;45.82;95651.00;4937953;29;20201;-82
2022/09/12 11:06:58;;;;;;;3.78;2.20;;;;;;;22.79;45.86;95651.31;4937905;28;20237;-81
2022/09/12 11:09:34;;;;;;;2.25;2.05;;;;;;;23.01;45.62;95649.38;4937445;29;20276;-81
2022/09/12 11:12:12;;;;;;;2.65;1.80;;;;;;;23.09;46.71;95648.88;4937092;29;20312;-81
2022/09/12 11:14:56;;;;;;;2.25;2.03;;;;;;;23.11;46.50;95645.19;4937839;28;20209;-81
2022/09/12 11:17:36;;;;;;;1.98;1.88;;;;;;;22.98;45.27;95644.59;4938608;29;20205;-83
2022/09/12 11:20:44;;;;;;;2.38;1.88;;;;;;;22.70;45.65;95640.47;4937612;29;20213;-79
2022/09/12 11:23:44;;;;;;;1.90;1.80;;;;;;;22.70;45.53;95640.47;4924943;29;20225;-82
2022/09/12 11:26:24;;;;;;;2.03;1.88;;;;;;;22.86;46.18;95643.22;4937824;28;20241;-81
2022/09/12 11:29:03;;;;;;;3.63;1.80;;;;;;;22.86;45.34;95633.50;4938060;29;20205;-81
2022/09/12 11:31:59;;;;;;;2.75;1.60;;;;;;;22.99;46.69;95625.19;4937888;29;20206;-81
2022/09/12 11:34:32;;;;;;;3.83;1.80;;;;;;;23.00;46.08;95632.03;4938251;29;20212;-82
2022/09/12 11:37:14;;;;;;;2.35;1.70;;;;;;;23.07;46.04;95634.44;4937495;28;20248;-82
2022/09/12 11:39:45;;;;;;;1.80;1.70;;;;;;;23.01;45.91;95628.34;4936048;29;20670;-84
2022/09/12 11:42:16;;;;;;;2.03;1.92;;;;;;;22.85;45.60;95628.50;4936860;29;20234;-84
2022/09/12 11:44:47;;;;;;;1.80;1.70;;;;;;;22.92;46.13;95629.84;4937116;28;20292;-83
2022/09/12 11:47:14;;;;;;;1.90;1.70;;;;;;;23.07;46.43;95627.34;4937434;29;20662;-83
2022/09/12 11:49:46;;;;;;;1.85;1.75;;;;;;;23.17;45.58;95636.31;4936956;29;20206;-84
2022/09/12 11:52:15;;;;;;;1.83;1.73;;;;;;;23.09;44.75;95627.09;4936343;29;20227;-83